createdAt,value
2023-04-16T00:01:02.332Z,8.07
2023-04-16T00:03:29.030Z,8.08
2023-04-16T00:05:56.480Z,8.11
2023-04-16T00:08:26.189Z,8.13
2023-04-16T00:10:55.707Z,8.17
2023-04-16T00:13:22.721Z,8.17
2023-04-16T00:15:49.326Z,8.20
2023-04-16T00:18:15.905Z,8.21
2023-04-16T00:20:42.439Z,8.17
2023-04-16T00:23:08.962Z,8.13
2023-04-16T00:25:35.476Z,8.16
2023-04-16T00:28:01.940Z,8.16
2023-04-16T00:30:28.465Z,8.14
2023-04-16T00:32:54.922Z,8.13
2023-04-16T00:35:21.518Z,8.11
2023-04-16T00:37:48.003Z,8.14
2023-04-16T00:40:14.539Z,8.17
2023-04-16T00:42:41.354Z,8.23
2023-04-16T00:45:08.609Z,8.27
2023-04-16T00:47:35.118Z,8.28
2023-04-16T00:50:04.442Z,8.32
2023-04-16T00:52:34.792Z,8.35
2023-04-16T00:55:01.522Z,8.40
2023-04-16T00:57:28.103Z,8.44
2023-04-16T00:59:54.836Z,8.48
2023-04-16T01:02:21.396Z,8.52
2023-04-16T01:04:48.134Z,8.54
2023-04-16T01:07:14.612Z,8.56
2023-04-16T01:09:41.366Z,8.56
2023-04-16T01:12:07.843Z,8.57
2023-04-16T01:14:36.409Z,8.60
2023-04-16T01:17:03.994Z,8.63
2023-04-16T01:19:36.351Z,8.66
2023-04-16T01:22:04.255Z,8.67
2023-04-16T01:24:31.138Z,8.65
2023-04-16T01:27:00.942Z,8.62
2023-04-16T01:29:27.689Z,8.64
2023-04-16T01:31:54.503Z,8.61
2023-04-16T01:34:21.066Z,8.60
2023-04-16T01:36:47.624Z,8.55
2023-04-16T01:39:16.280Z,8.54
2023-04-16T01:41:43.006Z,8.57
2023-04-16T01:44:09.467Z,8.57
2023-04-16T01:46:37.754Z,8.58
2023-04-16T01:49:05.082Z,8.58
2023-04-16T01:51:32.275Z,8.62
2023-04-16T01:53:59.036Z,8.65
2023-04-16T01:56:25.798Z,8.66
2023-04-16T01:58:52.966Z,8.71
2023-04-16T02:01:19.663Z,8.74
2023-04-16T02:03:47.131Z,8.76
2023-04-16T02:06:13.866Z,8.78
2023-04-16T02:08:41.483Z,8.76
2023-04-16T02:11:08.250Z,8.75
2023-04-16T02:13:34.924Z,8.75
2023-04-16T02:16:02.507Z,8.75
2023-04-16T02:18:29.105Z,8.77
2023-04-16T02:20:58.561Z,8.76
2023-04-16T02:23:25.153Z,8.74
2023-04-16T02:25:51.669Z,8.68
2023-04-16T02:28:18.222Z,8.70
2023-04-16T02:30:45.192Z,8.70
2023-04-16T02:33:12.308Z,8.70
2023-04-16T02:35:40.225Z,8.71
2023-04-16T02:38:07.671Z,8.72
2023-04-16T02:40:34.239Z,8.72
2023-04-16T02:43:00.886Z,8.73
2023-04-16T02:45:27.851Z,8.71
2023-04-16T02:47:54.460Z,8.71
2023-04-16T02:50:21.124Z,8.71
2023-04-16T02:52:48.544Z,8.70
2023-04-16T02:55:15.034Z,8.70
2023-04-16T02:57:42.522Z,8.67
2023-04-16T03:00:09.825Z,8.67
2023-04-16T03:02:36.485Z,8.65
2023-04-16T03:05:03.872Z,8.66
2023-04-16T03:07:30.413Z,8.66
2023-04-16T03:09:57.007Z,8.67
2023-04-16T03:12:23.534Z,8.61
2023-04-16T03:14:52.392Z,8.58
2023-04-16T03:17:18.915Z,8.57
2023-04-16T03:19:45.442Z,8.56
2023-04-16T03:22:11.942Z,8.57
2023-04-16T03:24:38.407Z,8.56
2023-04-16T03:27:04.952Z,8.56
2023-04-16T03:29:31.400Z,8.55
2023-04-16T03:31:58.444Z,8.53
2023-04-16T03:34:24.955Z,8.53
2023-04-16T03:36:51.366Z,8.54
2023-04-16T03:39:17.908Z,8.55
2023-04-16T03:41:44.308Z,8.55
2023-04-16T03:44:10.976Z,8.54
2023-04-16T03:46:37.574Z,8.55
2023-04-16T03:49:04.259Z,8.57
2023-04-16T03:51:30.953Z,8.55
2023-04-16T03:53:57.531Z,8.57
2023-04-16T03:56:24.102Z,8.60
2023-04-16T03:58:50.600Z,8.59
2023-04-16T04:01:17.066Z,8.59
2023-04-16T04:03:43.876Z,8.62
2023-04-16T04:06:10.559Z,8.62
2023-04-16T04:08:37.042Z,8.64
2023-04-16T04:11:03.641Z,8.65
2023-04-16T04:13:30.255Z,8.67
2023-04-16T04:15:56.838Z,8.69
2023-04-16T04:18:23.443Z,8.75
2023-04-16T04:20:49.965Z,8.79
2023-04-16T04:23:16.475Z,8.83
2023-04-16T04:25:43.015Z,8.85
2023-04-16T04:28:09.489Z,8.87
2023-04-16T04:30:35.990Z,8.92
2023-04-16T04:33:02.843Z,8.95
2023-04-16T04:35:29.401Z,8.98
2023-04-16T04:37:55.925Z,8.99
2023-04-16T04:40:22.416Z,9.06
2023-04-16T04:42:49.089Z,9.09
2023-04-16T04:45:16.074Z,9.13
2023-04-16T04:47:42.666Z,9.17
2023-04-16T04:50:09.799Z,9.21
2023-04-16T04:52:36.360Z,9.24
2023-04-16T04:55:02.876Z,9.29
2023-04-16T04:57:29.384Z,9.33
2023-04-16T04:59:55.902Z,9.39
2023-04-16T05:02:22.499Z,9.49
2023-04-16T05:04:49.104Z,9.53
2023-04-16T05:07:16.263Z,9.53
2023-04-16T05:09:42.779Z,9.58
2023-04-16T05:12:09.273Z,9.62
2023-04-16T05:14:36.345Z,9.67
2023-04-16T05:17:03.037Z,9.70
2023-04-16T05:19:29.713Z,9.68
2023-04-16T05:21:56.277Z,9.70
2023-04-16T05:24:23.205Z,9.66
2023-04-16T05:26:49.710Z,9.71
2023-04-16T05:29:16.187Z,9.68
2023-04-16T05:31:42.772Z,9.67
2023-04-16T05:34:09.251Z,9.69
2023-04-16T05:36:35.788Z,9.68
2023-04-16T05:39:06.482Z,9.64
2023-04-16T05:41:33.590Z,9.65
2023-04-16T05:44:00.399Z,9.67
2023-04-16T05:46:26.920Z,9.69
2023-04-16T05:48:53.448Z,9.76
2023-04-16T05:51:21.963Z,9.78
2023-04-16T05:53:48.533Z,9.77
2023-04-16T05:56:14.948Z,9.75
2023-04-16T05:58:41.416Z,9.80
2023-04-16T06:01:07.865Z,9.76
2023-04-16T06:03:34.353Z,9.81
2023-04-16T06:06:00.896Z,9.89
2023-04-16T06:08:27.457Z,9.98
2023-04-16T06:10:53.905Z,10.04
2023-04-16T06:13:20.484Z,10.01
2023-04-16T06:15:47.057Z,10.01
2023-04-16T06:18:13.748Z,9.99
2023-04-16T06:20:40.523Z,9.96
2023-04-16T06:23:06.958Z,10.02
2023-04-16T06:25:33.421Z,10.05
2023-04-16T06:27:59.841Z,10.04
2023-04-16T06:30:26.405Z,10.12
2023-04-16T06:32:53.651Z,10.21
2023-04-16T06:35:20.259Z,10.28
2023-04-16T06:37:47.300Z,10.35
2023-04-16T06:40:13.909Z,10.46
2023-04-16T06:42:40.983Z,10.54
2023-04-16T06:45:09.713Z,10.66
2023-04-16T06:47:36.146Z,10.75
2023-04-16T06:50:02.628Z,10.82
2023-04-16T06:52:29.590Z,10.74
2023-04-16T06:54:56.737Z,10.81
2023-04-16T06:57:23.492Z,10.86
2023-04-16T06:59:50.386Z,10.93
2023-04-16T07:02:19.800Z,10.85
2023-04-16T07:04:46.935Z,10.87
2023-04-16T07:07:13.501Z,10.95
2023-04-16T07:09:40.053Z,11.00
2023-04-16T07:12:07.184Z,11.03
2023-04-16T07:14:33.840Z,10.99
2023-04-16T07:17:00.578Z,10.96
2023-04-16T07:19:30.560Z,10.95
2023-04-16T07:21:57.303Z,10.86
2023-04-16T07:24:24.263Z,10.82
2023-04-16T07:26:50.855Z,10.68
2023-04-16T07:29:17.289Z,10.64
2023-04-16T07:31:45.272Z,10.66
2023-04-16T07:34:12.144Z,10.72
2023-04-16T07:36:41.503Z,10.73
2023-04-16T07:39:08.476Z,10.78
2023-04-16T07:41:35.538Z,10.81
2023-04-16T07:44:02.212Z,10.92
2023-04-16T07:46:39.410Z,11.10
2023-04-16T07:49:12.607Z,11.32
2023-04-16T07:51:39.330Z,11.58
2023-04-16T07:54:06.007Z,11.86
2023-04-16T07:56:32.466Z,12.13
2023-04-16T07:59:07.968Z,12.37
2023-04-16T08:01:46.045Z,12.59
2023-04-16T08:04:12.941Z,12.83
2023-04-16T08:06:39.790Z,13.24
2023-04-16T08:09:06.396Z,13.62
2023-04-16T08:11:33.216Z,13.98
2023-04-16T08:13:59.699Z,14.40
2023-04-16T08:16:26.490Z,14.83
2023-04-16T08:18:59.194Z,15.17
2023-04-16T08:21:28.093Z,15.26
2023-04-16T08:23:54.638Z,15.21
2023-04-16T08:26:21.368Z,15.02
2023-04-16T08:28:48.029Z,14.54
2023-04-16T08:31:14.573Z,14.12
2023-04-16T08:33:44.127Z,13.97
2023-04-16T08:36:11.178Z,13.91
2023-04-16T08:38:37.770Z,13.92
2023-04-16T08:41:09.715Z,13.96
2023-04-16T08:43:39.355Z,14.24
2023-04-16T08:46:06.655Z,14.74
2023-04-16T08:48:34.392Z,15.00
2023-04-16T08:51:02.680Z,15.11
2023-04-16T08:53:52.325Z,15.42
2023-04-16T08:56:21.544Z,15.56
2023-04-16T08:58:50.077Z,15.72
2023-04-16T09:01:20.160Z,15.86
2023-04-16T09:03:48.911Z,16.03
2023-04-16T09:06:17.300Z,16.14
2023-04-16T09:08:48.120Z,16.17
2023-04-16T09:11:18.093Z,16.14
2023-04-16T09:13:46.437Z,16.13
2023-04-16T09:16:13.892Z,16.04
2023-04-16T09:18:41.869Z,16.13
2023-04-16T09:21:11.174Z,16.38
2023-04-16T09:23:39.138Z,16.42
2023-04-16T09:26:06.315Z,15.87
2023-04-16T09:28:44.043Z,15.48
2023-04-16T09:31:11.645Z,15.29
2023-04-16T09:33:38.671Z,15.14
2023-04-16T09:36:06.106Z,14.94
2023-04-16T09:38:48.808Z,15.05
2023-04-16T09:41:18.990Z,15.03
2023-04-16T09:43:56.821Z,15.27
2023-04-16T09:46:41.039Z,15.40
2023-04-16T09:49:11.641Z,15.00
2023-04-16T09:51:42.935Z,15.00
2023-04-16T09:54:10.116Z,14.83
2023-04-16T09:56:44.635Z,14.75
2023-04-16T09:59:18.718Z,14.87
2023-04-16T10:01:47.129Z,14.77
2023-04-16T10:04:14.016Z,15.13
2023-04-16T10:06:40.970Z,15.32
2023-04-16T10:09:10.105Z,15.20
2023-04-16T10:11:37.771Z,15.22
2023-04-16T10:14:04.721Z,15.15
2023-04-16T10:16:32.341Z,15.23
2023-04-16T10:18:59.257Z,15.16
2023-04-16T10:21:33.695Z,14.98
2023-04-16T10:24:01.136Z,14.95
2023-04-16T10:26:29.851Z,15.08
2023-04-16T10:28:58.188Z,15.09
2023-04-16T10:31:29.195Z,14.91
2023-04-16T10:33:56.917Z,15.01
2023-04-16T10:36:27.154Z,15.05
2023-04-16T10:38:59.192Z,15.06
2023-04-16T10:41:28.418Z,15.18
2023-04-16T10:44:11.324Z,15.53
2023-04-16T10:46:42.895Z,15.73
2023-04-16T10:49:17.677Z,16.17
2023-04-16T10:52:07.600Z,16.31
2023-04-16T10:54:36.585Z,16.38
2023-04-16T10:57:05.132Z,16.44
2023-04-16T10:59:36.577Z,16.43
2023-04-16T11:02:14.048Z,16.58
2023-04-16T11:04:44.101Z,16.94
2023-04-16T11:07:16.605Z,17.30
2023-04-16T11:10:13.441Z,17.33
2023-04-16T11:12:41.780Z,17.34
2023-04-16T11:15:11.045Z,17.38
2023-04-16T11:17:47.697Z,17.38
2023-04-16T11:20:21.783Z,17.14
2023-04-16T11:22:51.916Z,17.08
2023-04-16T11:25:24.458Z,17.15
2023-04-16T11:27:52.086Z,17.11
2023-04-16T11:30:27.766Z,17.13
2023-04-16T11:32:54.454Z,17.16
2023-04-16T11:35:21.108Z,17.10
2023-04-16T11:37:50.722Z,16.95
2023-04-16T11:40:17.240Z,16.77
2023-04-16T11:42:44.444Z,16.70
2023-04-16T11:45:12.531Z,16.89
2023-04-16T11:47:46.680Z,17.13
2023-04-16T11:50:18.695Z,17.32
2023-04-16T11:52:45.324Z,16.95
2023-04-16T11:55:12.133Z,16.92
2023-04-16T11:57:38.963Z,16.71
2023-04-16T12:00:10.646Z,16.64
2023-04-16T12:02:41.260Z,16.43
2023-04-16T12:05:28.477Z,15.87
2023-04-16T12:07:55.864Z,15.58
2023-04-16T12:10:22.425Z,15.25
2023-04-16T12:12:49.034Z,14.88
2023-04-16T12:15:15.719Z,14.45
2023-04-16T12:17:42.434Z,14.18
2023-04-16T12:20:09.938Z,14.11
2023-04-16T12:22:41.390Z,13.93
2023-04-16T12:25:11.640Z,13.75
2023-04-16T12:27:47.099Z,13.57
2023-04-16T12:30:19.008Z,13.46
2023-04-16T12:32:48.060Z,13.38
2023-04-16T12:35:28.835Z,13.31
2023-04-16T12:37:55.334Z,13.21
2023-04-16T12:40:21.841Z,13.16
2023-04-16T12:42:48.420Z,13.16
2023-04-16T12:45:15.017Z,13.18
2023-04-16T12:47:41.600Z,13.15
2023-04-16T12:50:08.345Z,13.13
2023-04-16T12:52:35.818Z,13.15
2023-04-16T12:55:03.133Z,13.18
2023-04-16T12:57:29.693Z,13.17
2023-04-16T12:59:57.350Z,13.20
2023-04-16T13:02:24.803Z,13.24
2023-04-16T13:04:54.671Z,13.22
2023-04-16T13:07:22.054Z,13.30
2023-04-16T13:09:48.673Z,13.41
2023-04-16T13:12:15.635Z,13.45
2023-04-16T13:14:44.615Z,13.41
2023-04-16T13:17:11.579Z,13.55
2023-04-16T13:19:38.100Z,13.50
2023-04-16T13:22:04.627Z,13.44
2023-04-16T13:24:31.368Z,13.59
2023-04-16T13:26:57.892Z,13.71
2023-04-16T13:29:24.486Z,13.65
2023-04-16T13:31:51.118Z,13.68
2023-04-16T13:34:17.679Z,13.56
2023-04-16T13:36:44.364Z,13.77
2023-04-16T13:39:11.614Z,13.80
2023-04-16T13:41:38.866Z,13.55
2023-04-16T13:44:05.685Z,13.39
2023-04-16T13:46:32.507Z,13.14
2023-04-16T13:48:59.116Z,13.12
2023-04-16T13:51:27.370Z,12.97
2023-04-16T13:53:54.755Z,12.84
2023-04-16T13:56:21.344Z,12.92
2023-04-16T13:58:47.922Z,13.06
2023-04-16T14:01:14.757Z,12.88
2023-04-16T14:03:42.098Z,12.78
2023-04-16T14:06:08.786Z,12.48
2023-04-16T14:08:35.367Z,12.41
2023-04-16T14:11:02.158Z,12.40
2023-04-16T14:13:28.745Z,12.25
2023-04-16T14:15:55.712Z,12.26
2023-04-16T14:18:22.476Z,12.13
2023-04-16T14:20:49.063Z,12.09
2023-04-16T14:23:15.744Z,12.10
2023-04-16T14:25:42.275Z,12.07
2023-04-16T14:28:09.357Z,12.08
2023-04-16T14:30:35.853Z,12.11
2023-04-16T14:33:06.720Z,12.12
2023-04-16T14:35:34.101Z,12.13
2023-04-16T14:38:01.318Z,12.17
2023-04-16T14:40:27.797Z,12.24
2023-04-16T14:42:54.374Z,12.14
2023-04-16T14:45:21.184Z,12.05
2023-04-16T14:47:48.153Z,11.91
2023-04-16T14:50:15.565Z,11.76
2023-04-16T14:52:42.247Z,11.70
2023-04-16T14:55:09.003Z,11.62
2023-04-16T14:57:35.918Z,11.61
2023-04-16T15:00:02.907Z,11.48
2023-04-16T15:02:29.637Z,11.47
2023-04-16T15:04:56.261Z,11.41
2023-04-16T15:07:22.807Z,11.37
2023-04-16T15:09:49.260Z,11.48
2023-04-16T15:12:17.932Z,11.56
2023-04-16T15:14:45.659Z,11.68
2023-04-16T15:17:12.174Z,11.70
2023-04-16T15:19:38.768Z,11.72
2023-04-16T15:22:05.302Z,11.73
2023-04-16T15:24:31.774Z,11.71
2023-04-16T15:26:58.373Z,11.71
2023-04-16T15:29:24.969Z,11.69
2023-04-16T15:31:51.683Z,11.68
2023-04-16T15:34:18.356Z,11.67
2023-04-16T15:36:44.879Z,11.70
2023-04-16T15:39:11.463Z,11.71
2023-04-16T15:41:50.180Z,11.71
2023-04-16T15:44:26.001Z,11.71
2023-04-16T15:46:52.646Z,11.66
2023-04-16T15:49:19.107Z,11.61
2023-04-16T15:51:46.264Z,11.51
2023-04-16T15:54:12.737Z,11.51
2023-04-16T15:56:39.608Z,11.34
2023-04-16T15:59:06.483Z,11.26
2023-04-16T16:01:33.008Z,11.18
2023-04-16T16:03:59.747Z,11.14
2023-04-16T16:06:27.179Z,11.08
2023-04-16T16:08:54.505Z,10.96
2023-04-16T16:11:21.835Z,10.99
2023-04-16T16:13:48.446Z,10.93
2023-04-16T16:16:15.371Z,10.94
2023-04-16T16:18:42.244Z,10.94
2023-04-16T16:21:08.841Z,10.95
2023-04-16T16:23:35.326Z,10.95
2023-04-16T16:26:01.905Z,10.90
2023-04-16T16:28:28.432Z,10.84
2023-04-16T16:30:55.665Z,10.78
2023-04-16T16:33:22.474Z,10.67
2023-04-16T16:35:48.953Z,10.75
2023-04-16T16:38:15.565Z,10.63
2023-04-16T16:40:42.193Z,10.55
2023-04-16T16:43:08.914Z,10.47
2023-04-16T16:45:35.424Z,10.40
2023-04-16T16:48:03.851Z,10.40
2023-04-16T16:50:33.278Z,10.33
2023-04-16T16:53:00.432Z,10.31
2023-04-16T16:55:27.115Z,10.35
2023-04-16T16:57:53.607Z,10.32
2023-04-16T17:00:21.471Z,10.23
2023-04-16T17:02:51.189Z,10.22
2023-04-16T17:05:18.185Z,10.24
2023-04-16T17:07:44.757Z,10.18
2023-04-16T17:10:13.108Z,10.07
2023-04-16T17:12:39.752Z,10.06
2023-04-16T17:15:06.702Z,9.95
2023-04-16T17:17:33.365Z,10.01
2023-04-16T17:20:01.032Z,9.97
2023-04-16T17:22:27.928Z,9.91
2023-04-16T17:24:54.484Z,9.91
2023-04-16T17:27:21.005Z,9.87
2023-04-16T17:29:47.566Z,9.78
2023-04-16T17:32:14.196Z,9.81
2023-04-16T17:34:41.004Z,9.78
2023-04-16T17:37:07.465Z,9.77
2023-04-16T17:39:33.901Z,9.75
2023-04-16T17:42:02.973Z,9.78
2023-04-16T17:44:29.470Z,9.72
2023-04-16T17:46:57.217Z,9.69
2023-04-16T17:49:23.906Z,9.66
2023-04-16T17:51:50.559Z,9.65
2023-04-16T17:54:17.032Z,9.65
2023-04-16T17:56:43.543Z,9.63
2023-04-16T17:59:10.118Z,9.61
2023-04-16T18:01:36.717Z,9.58
2023-04-16T18:04:03.312Z,9.61
2023-04-16T18:06:30.944Z,9.68
2023-04-16T18:08:57.467Z,9.64
2023-04-16T18:11:23.981Z,9.57
2023-04-16T18:13:52.489Z,9.57
2023-04-16T18:16:19.216Z,9.56
2023-04-16T18:18:46.125Z,9.61
2023-04-16T18:21:12.913Z,9.61
2023-04-16T18:23:39.445Z,9.68
2023-04-16T18:26:08.511Z,9.62
2023-04-16T18:28:35.989Z,9.61
2023-04-16T18:31:05.670Z,9.61
2023-04-16T18:36:02.421Z,9.60
2023-04-16T18:38:32.040Z,9.63
2023-04-16T18:40:59.433Z,9.57
2023-04-16T18:43:26.350Z,9.61
2023-04-16T18:45:52.917Z,9.55
2023-04-16T18:48:19.732Z,9.53
2023-04-16T18:50:46.270Z,9.53
2023-04-16T18:53:12.845Z,9.50
2023-04-16T18:55:39.503Z,9.52
2023-04-16T18:58:06.155Z,9.48
2023-04-16T19:00:32.786Z,9.42
2023-04-16T19:02:59.465Z,9.39
2023-04-16T19:05:26.215Z,9.36
2023-04-16T19:07:52.915Z,9.38
2023-04-16T19:10:19.401Z,9.36
2023-04-16T19:12:45.976Z,9.37
2023-04-16T19:15:12.659Z,9.33
2023-04-16T19:17:40.024Z,9.31
2023-04-16T19:20:11.325Z,9.26
2023-04-16T19:22:38.458Z,9.28
2023-04-16T19:25:06.041Z,9.27
2023-04-16T19:27:32.945Z,9.28
2023-04-16T19:29:59.617Z,9.26
2023-04-16T19:32:26.134Z,9.24
2023-04-16T19:34:52.767Z,9.28
2023-04-16T19:37:19.271Z,9.30
2023-04-16T19:39:46.037Z,9.32
2023-04-16T19:42:12.741Z,9.32
2023-04-16T19:44:39.247Z,9.24
2023-04-16T19:47:06.466Z,9.21
2023-04-16T19:49:34.466Z,9.18
2023-04-16T19:52:01.363Z,9.23
2023-04-16T19:54:28.690Z,9.19
2023-04-16T19:56:55.542Z,9.12
2023-04-16T19:59:22.155Z,9.10
2023-04-16T20:01:48.710Z,9.11
2023-04-16T20:04:15.452Z,9.12
2023-04-16T20:06:41.952Z,9.11
2023-04-16T20:09:08.496Z,9.08
2023-04-16T20:11:35.515Z,9.06
2023-04-16T20:14:02.072Z,9.04
2023-04-16T20:16:30.279Z,8.98
2023-04-16T20:18:57.558Z,8.99
2023-04-16T20:21:25.239Z,9.00
2023-04-16T20:23:51.907Z,8.97
2023-04-16T20:26:19.348Z,8.95
2023-04-16T20:28:46.172Z,8.99
2023-04-16T20:31:13.364Z,9.07
2023-04-16T20:33:39.930Z,9.04
2023-04-16T20:36:07.109Z,8.98
2023-04-16T20:38:35.438Z,8.97
2023-04-16T20:41:12.122Z,8.98
2023-04-16T20:43:41.117Z,8.96
2023-04-16T20:46:12.316Z,8.98
2023-04-16T20:48:39.072Z,8.95
2023-04-16T20:51:07.605Z,8.93
2023-04-16T20:53:34.310Z,8.92
2023-04-16T20:56:01.005Z,8.88
2023-04-16T20:58:27.483Z,8.88
2023-04-16T21:00:56.028Z,8.88
2023-04-16T21:03:22.844Z,8.91
2023-04-16T21:05:51.344Z,8.90
2023-04-16T21:08:18.103Z,8.84
2023-04-16T21:10:45.136Z,8.83
2023-04-16T21:13:11.931Z,8.86
2023-04-16T21:15:39.989Z,8.88
2023-04-16T21:18:07.160Z,8.91
2023-04-16T21:20:34.322Z,8.90
2023-04-16T21:23:01.537Z,8.83
2023-04-16T21:25:28.381Z,8.77
2023-04-16T21:27:54.839Z,8.76
2023-04-16T21:30:21.883Z,8.80
2023-04-16T21:32:48.708Z,8.78
2023-04-16T21:35:15.224Z,8.78
2023-04-16T21:37:41.762Z,8.77
2023-04-16T21:40:08.713Z,8.80
2023-04-16T21:42:39.663Z,8.76
2023-04-16T21:45:11.807Z,8.75
2023-04-16T21:47:38.406Z,8.75
2023-04-16T21:50:05.786Z,8.78
2023-04-16T21:52:33.058Z,8.77
2023-04-16T21:55:00.614Z,8.76
2023-04-16T21:57:27.140Z,8.78
2023-04-16T21:59:53.670Z,8.77
2023-04-16T22:02:20.416Z,8.77
2023-04-16T22:04:47.252Z,8.80
2023-04-16T22:07:13.801Z,8.77
2023-04-16T22:09:40.848Z,8.78
2023-04-16T22:12:10.174Z,8.77
2023-04-16T22:14:38.373Z,8.78
2023-04-16T22:17:09.393Z,8.82
2023-04-16T22:19:37.199Z,8.82
2023-04-16T22:22:03.734Z,8.84
2023-04-16T22:24:30.409Z,8.84
2023-04-16T22:26:57.173Z,8.82
2023-04-16T22:29:23.728Z,8.82
2023-04-16T22:31:50.423Z,8.80
2023-04-16T22:34:17.005Z,8.81
2023-04-16T22:36:43.484Z,8.86
2023-04-16T22:39:10.155Z,8.83
2023-04-16T22:41:37.501Z,8.83
2023-04-16T22:44:04.126Z,8.81
2023-04-16T22:46:31.061Z,8.78
2023-04-16T22:48:57.954Z,8.78
2023-04-16T22:51:24.523Z,8.75
2023-04-16T22:53:54.118Z,8.70
2023-04-16T22:56:21.395Z,8.69
2023-04-16T22:58:49.397Z,8.72
2023-04-16T23:01:16.951Z,8.69
2023-04-16T23:03:43.588Z,8.64
2023-04-16T23:06:10.221Z,8.70
2023-04-16T23:08:36.726Z,8.72
2023-04-16T23:11:03.411Z,8.66
2023-04-16T23:13:30.005Z,8.58
2023-04-16T23:15:56.532Z,8.58
2023-04-16T23:18:23.124Z,8.62
2023-04-16T23:20:53.353Z,8.61
2023-04-16T23:23:19.951Z,8.57
2023-04-16T23:25:46.511Z,8.50
2023-04-16T23:28:13.113Z,8.53
2023-04-16T23:30:39.621Z,8.45
2023-04-16T23:33:06.709Z,8.47
2023-04-16T23:35:33.290Z,8.46
2023-04-16T23:37:59.910Z,8.47
2023-04-16T23:40:26.470Z,8.49
2023-04-16T23:42:52.940Z,8.48
2023-04-16T23:45:19.457Z,8.49
2023-04-16T23:47:46.983Z,8.51
2023-04-16T23:50:13.463Z,8.55
2023-04-16T23:52:40.109Z,8.44
2023-04-16T23:55:06.922Z,8.44
2023-04-16T23:57:33.435Z,8.43
2023-04-16T23:59:59.928Z,8.35
